Time;durP1;ratioP1;P1;durP2;ratioP2;P2;SDS_P1;SDS_P2;PMS_P1;PMS_P2;Temp;Humidity;BMP_temperature;BMP_pressure;BME280_temperature;BME280_humidity;BME280_pressure;Samples;Min_cycle;Max_cycle;Signal;HPM_P1;HPM_P2
2024/03/15 16:59:22;;;;;;;;;8.00;6.25;;;;;;;;5094912;27;13535;-73
2024/03/15 17:01:47;;;;;;;;;7.75;7.75;;;;;;;;5047261;28;12149;-74
2024/03/15 17:04:12;;;;;;;;;6.00;6.00;;;;;;;;5047062;28;9593;-72
2024/03/15 17:06:38;;;;;;;;;6.75;5.50;;;;;;;;5047213;28;8792;-75
2024/03/15 17:09:04;;;;;;;;;7.00;7.00;;;;;;;;5044800;28;8859;-72
2024/03/15 17:11:32;;;;;;;;;6.00;4.75;;;;;;;;5067241;28;8813;-73
2024/03/15 17:13:57;;;;;;;;;5.50;5.50;;;;;;;;5066593;28;11478;-73
2024/03/15 17:16:23;;;;;;;;;9.25;7.75;;;;;;;;5049626;28;11507;-73
2024/03/15 17:18:48;;;;;;;;;9.00;8.25;;;;;;;;5047189;28;8836;-75
2024/03/15 17:21:13;;;;;;;;;8.50;7.50;;;;;;;;5048852;28;8805;-76
2024/03/15 17:23:39;;;;;;;;;8.00;6.50;;;;;;;;5046280;28;8799;-77
2024/03/15 17:26:05;;;;;;;;;6.75;6.75;;;;;;;;5045757;28;8812;-78
2024/03/15 17:28:31;;;;;;;;;7.50;5.75;;;;;;;;5044408;28;9529;-76
2024/03/15 17:30:56;;;;;;;;;10.50;7.00;;;;;;;;5048830;28;11485;-76
2024/03/15 17:33:21;;;;;;;;;9.50;8.00;;;;;;;;5046535;28;8800;-75
2024/03/15 17:35:47;;;;;;;;;10.50;8.75;;;;;;;;5044718;28;8950;-73
2024/03/15 17:38:12;;;;;;;;;7.25;7.00;;;;;;;;5046335;28;8851;-74
2024/03/15 17:40:37;;;;;;;;;12.00;9.00;;;;;;;;5044831;28;9646;-73
2024/03/15 17:43:03;;;;;;;;;9.50;7.25;;;;;;;;5046520;28;8803;-73
2024/03/15 17:45:29;;;;;;;;;10.25;8.50;;;;;;;;5044702;28;8893;-74
2024/03/15 17:47:55;;;;;;;;;9.00;8.25;;;;;;;;5046075;28;11519;-76
2024/03/15 17:50:27;;;;;;;;;9.50;9.50;;;;;;;;5041960;28;11488;-73
2024/03/15 17:52:52;;;;;;;;;11.50;7.25;;;;;;;;5045997;28;8819;-72
2024/03/15 17:55:18;;;;;;;;;13.25;11.00;;;;;;;;5045537;28;11539;-75
2024/03/15 17:57:43;;;;;;;;;11.25;9.50;;;;;;;;5045185;28;8835;-74
2024/03/15 18:00:12;;;;;;;;;11.00;10.75;;;;;;;;5043405;28;8937;-76
2024/03/15 18:02:38;;;;;;;;;14.00;12.75;;;;;;;;5046253;28;9005;-72
2024/03/15 18:05:03;;;;;;;;;10.00;10.00;;;;;;;;5046089;28;11544;-77
2024/03/15 18:07:29;;;;;;;;;9.50;9.50;;;;;;;;5046016;28;11501;-73
2024/03/15 18:09:54;;;;;;;;;12.25;10.25;;;;;;;;5036062;28;8804;-77
2024/03/15 18:12:19;;;;;;;;;9.25;9.00;;;;;;;;5032765;28;8804;-75
2024/03/15 18:14:44;;;;;;;;;12.50;8.00;;;;;;;;5032371;28;8910;-73
2024/03/15 18:17:10;;;;;;;;;13.00;8.00;;;;;;;;5031549;28;8823;-72
2024/03/15 18:19:35;;;;;;;;;10.50;10.00;;;;;;;;5031222;28;8843;-71
2024/03/15 18:22:00;;;;;;;;;10.25;10.00;;;;;;;;5047875;28;8817;-78
2024/03/15 18:24:27;;;;;;;;;8.75;8.75;;;;;;;;5051763;28;8817;-76
2024/03/15 18:26:53;;;;;;;;;9.00;9.00;;;;;;;;5050804;28;8845;-76
2024/03/15 18:29:18;;;;;;;;;9.00;8.75;;;;;;;;5048453;28;12238;-71
2024/03/15 18:31:43;;;;;;;;;10.00;10.00;;;;;;;;5052580;28;8932;-75
2024/03/15 18:34:09;;;;;;;;;11.00;10.00;;;;;;;;5052672;28;8909;-86
2024/03/15 18:36:34;;;;;;;;;10.50;9.00;;;;;;;;5044277;28;8888;-78
2024/03/15 18:38:59;;;;;;;;;8.25;8.25;;;;;;;;5031600;28;8832;-84
2024/03/15 18:41:24;;;;;;;;;10.25;9.75;;;;;;;;5051791;28;8809;-83
2024/03/15 18:43:50;;;;;;;;;8.00;8.00;;;;;;;;5051258;28;8805;-83
2024/03/15 18:46:15;;;;;;;;;13.75;11.75;;;;;;;;5051851;28;8909;-78
2024/03/15 18:48:40;;;;;;;;;10.75;10.75;;;;;;;;5050991;28;8809;-79
2024/03/15 18:51:05;;;;;;;;;10.75;10.75;;;;;;;;5050932;28;8797;-77
2024/03/15 18:53:31;;;;;;;;;13.25;10.50;;;;;;;;5052118;28;8831;-78
2024/03/15 18:55:56;;;;;;;;;9.00;8.75;;;;;;;;5041558;28;8838;-82
2024/03/15 18:58:21;;;;;;;;;9.25;8.50;;;;;;;;5030359;28;8938;-81
2024/03/15 19:00:47;;;;;;;;;17.00;13.50;;;;;;;;5030728;28;9541;-78
2024/03/15 19:03:12;;;;;;;;;9.00;8.00;;;;;;;;5032070;28;8819;-77
2024/03/15 19:05:37;;;;;;;;;8.50;8.50;;;;;;;;5030544;28;8912;-81
2024/03/15 19:08:02;;;;;;;;;9.75;8.50;;;;;;;;5032266;28;8893;-80
2024/03/15 19:10:28;;;;;;;;;7.25;6.50;;;;;;;;5030588;28;8819;-81
2024/03/15 19:12:53;;;;;;;;;7.00;7.00;;;;;;;;5031627;28;8977;-83
2024/03/15 19:15:24;;;;;;;;;9.50;8.00;;;;;;;;5031666;28;8827;-87
2024/03/15 19:17:49;;;;;;;;;9.50;7.00;;;;;;;;5051171;28;8947;-78
2024/03/15 19:20:15;;;;;;;;;8.50;7.75;;;;;;;;5046142;28;11606;-80
2024/03/15 19:22:40;;;;;;;;;8.50;8.00;;;;;;;;5049669;28;8813;-78
2024/03/15 19:25:06;;;;;;;;;7.00;7.00;;;;;;;;5041010;28;8842;-74
2024/03/15 19:27:32;;;;;;;;;9.00;9.00;;;;;;;;5030287;28;8855;-77
2024/03/15 19:29:57;;;;;;;;;13.75;11.25;;;;;;;;5034470;28;8809;-84
2024/03/15 19:32:30;;;;;;;;;15.75;15.25;;;;;;;;5050489;28;9562;-78
2024/03/15 19:34:56;;;;;;;;;9.25;7.75;;;;;;;;5051068;28;9557;-85
2024/03/15 19:37:21;;;;;;;;;9.00;9.00;;;;;;;;5034698;28;11509;-78
2024/03/15 19:39:49;;;;;;;;;13.25;11.00;;;;;;;;5038068;28;8839;-81
2024/03/15 19:42:14;;;;;;;;;10.00;9.75;;;;;;;;5031075;28;8796;-72
2024/03/15 19:44:40;;;;;;;;;8.75;7.00;;;;;;;;5030710;28;11548;-73
2024/03/15 19:47:06;;;;;;;;;8.00;8.00;;;;;;;;5030593;28;8804;-73
2024/03/15 19:49:32;;;;;;;;;9.50;8.00;;;;;;;;5028784;28;8812;-74
2024/03/15 19:51:57;;;;;;;;;10.50;8.25;;;;;;;;5045329;28;11507;-75
2024/03/15 19:54:22;;;;;;;;;9.75;9.75;;;;;;;;5048398;28;8841;-70
2024/03/15 19:56:48;;;;;;;;;8.50;8.50;;;;;;;;5030336;28;8800;-72
2024/03/15 19:59:13;;;;;;;;;11.25;10.00;;;;;;;;5028767;28;9627;-73
2024/03/15 20:01:39;;;;;;;;;22.00;19.00;;;;;;;;5029779;28;8901;-72
2024/03/15 20:04:05;;;;;;;;;12.00;11.25;;;;;;;;5030712;28;8795;-75
2024/03/15 20:06:31;;;;;;;;;9.00;9.00;;;;;;;;5030369;28;8824;-73
2024/03/15 20:08:56;;;;;;;;;22.75;21.50;;;;;;;;5030612;28;11558;-81
2024/03/15 20:11:21;;;;;;;;;17.75;17.75;;;;;;;;5047731;28;8793;-81
2024/03/15 20:13:46;;;;;;;;;15.00;11.75;;;;;;;;5049293;28;8789;-78
2024/03/15 20:16:13;;;;;;;;;17.00;15.75;;;;;;;;5050281;28;8801;-83
2024/03/15 20:18:38;;;;;;;;;19.00;17.25;;;;;;;;5049530;28;8886;-86
2024/03/15 20:21:04;;;;;;;;;16.50;11.75;;;;;;;;5036353;28;11527;-78
2024/03/15 20:23:29;;;;;;;;;11.75;11.25;;;;;;;;5037456;28;8815;-78
2024/03/15 20:25:54;;;;;;;;;10.00;9.00;;;;;;;;5029464;28;8819;-77
2024/03/15 20:28:19;;;;;;;;;9.25;8.50;;;;;;;;5027108;28;8835;-77
2024/03/15 20:30:48;;;;;;;;;8.25;7.25;;;;;;;;5040801;28;8802;-76
2024/03/15 20:33:14;;;;;;;;;7.75;5.00;;;;;;;;5036213;28;9052;-77
2024/03/15 20:35:39;;;;;;;;;8.50;8.00;;;;;;;;5030117;28;12301;-77
2024/03/15 20:38:04;;;;;;;;;9.50;9.00;;;;;;;;5029985;28;8804;-78
2024/03/15 20:40:29;;;;;;;;;6.50;6.50;;;;;;;;5027752;28;8834;-77
2024/03/15 20:42:55;;;;;;;;;14.75;12.00;;;;;;;;5030324;28;8784;-77
2024/03/15 20:45:21;;;;;;;;;15.25;11.00;;;;;;;;5029973;28;8788;-76
2024/03/15 20:47:47;;;;;;;;;14.25;14.25;;;;;;;;5028663;28;8835;-77
2024/03/15 20:50:13;;;;;;;;;13.50;11.00;;;;;;;;5026069;28;11562;-78
2024/03/15 20:52:38;;;;;;;;;8.25;8.25;;;;;;;;5029184;28;8908;-78
2024/03/15 20:55:06;;;;;;;;;11.00;11.00;;;;;;;;5030001;28;8903;-78
2024/03/15 20:57:32;;;;;;;;;8.25;8.25;;;;;;;;5029433;28;8819;-75
2024/03/15 20:59:57;;;;;;;;;5.00;5.00;;;;;;;;5026929;28;11601;-73
2024/03/15 21:02:23;;;;;;;;;5.00;5.00;;;;;;;;5029990;28;8851;-74
2024/03/15 21:04:48;;;;;;;;;9.00;8.00;;;;;;;;5030192;28;8808;-79
2024/03/15 21:07:15;;;;;;;;;9.50;6.00;;;;;;;;5029528;28;11507;-70
2024/03/15 21:09:41;;;;;;;;;4.75;4.75;;;;;;;;5027445;28;8812;-71
2024/03/15 21:12:08;;;;;;;;;5.00;5.00;;;;;;;;5028856;28;11472;-70
2024/03/15 21:14:34;;;;;;;;;5.75;4.75;;;;;;;;5030008;28;11450;-70
2024/03/15 21:17:00;;;;;;;;;8.00;7.00;;;;;;;;5029384;28;11431;-72
2024/03/15 21:19:26;;;;;;;;;3.00;3.00;;;;;;;;5027497;28;11446;-69
2024/03/15 21:21:51;;;;;;;;;4.50;3.00;;;;;;;;5029232;28;8823;-71
2024/03/15 21:24:16;;;;;;;;;5.00;5.00;;;;;;;;5029129;28;8811;-70
2024/03/15 21:26:42;;;;;;;;;5.00;5.00;;;;;;;;5029030;28;8855;-71
2024/03/15 21:29:09;;;;;;;;;9.25;8.75;;;;;;;;5026387;28;8856;-70
2024/03/15 21:31:35;;;;;;;;;9.00;9.00;;;;;;;;5027626;28;11535;-70
2024/03/15 21:34:00;;;;;;;;;6.00;6.00;;;;;;;;5029467;28;11520;-71
2024/03/15 21:36:26;;;;;;;;;9.00;7.25;;;;;;;;5029468;28;9605;-69
2024/03/15 21:38:51;;;;;;;;;5.00;5.00;;;;;;;;5028121;28;8828;-71
2024/03/15 21:41:17;;;;;;;;;9.25;9.25;;;;;;;;5046228;28;8825;-71
2024/03/15 21:43:43;;;;;;;;;6.75;6.50;;;;;;;;5049631;28;8809;-71
2024/03/15 21:46:10;;;;;;;;;9.25;6.75;;;;;;;;5053095;28;12101;-71
2024/03/15 21:48:38;;;;;;;;;5.50;5.50;;;;;;;;5045153;28;8962;-70
2024/03/15 21:51:05;;;;;;;;;8.50;6.00;;;;;;;;5036500;28;11449;-70
2024/03/15 21:53:30;;;;;;;;;9.25;7.50;;;;;;;;5033264;28;11414;-70
2024/03/15 21:55:56;;;;;;;;;9.00;8.25;;;;;;;;5032550;28;11515;-69
2024/03/15 21:58:21;;;;;;;;;7.00;7.00;;;;;;;;5032442;28;8824;-69
2024/03/15 22:00:47;;;;;;;;;7.50;6.50;;;;;;;;5030391;28;8816;-69
2024/03/15 22:03:15;;;;;;;;;7.50;7.00;;;;;;;;5033191;28;8796;-69
2024/03/15 22:05:40;;;;;;;;;9.50;6.00;;;;;;;;5032840;28;8834;-70
2024/03/15 22:08:06;;;;;;;;;11.00;8.50;;;;;;;;5032027;28;12652;-69
2024/03/15 22:10:33;;;;;;;;;7.00;7.00;;;;;;;;5035350;28;8865;-69
2024/03/15 22:12:58;;;;;;;;;6.50;6.00;;;;;;;;5032994;28;8783;-68
2024/03/15 22:15:24;;;;;;;;;7.25;7.25;;;;;;;;5032655;28;11524;-68
2024/03/15 22:17:51;;;;;;;;;9.00;9.00;;;;;;;;5032228;28;8910;-69
2024/03/15 22:20:16;;;;;;;;;6.50;6.50;;;;;;;;5029835;28;8780;-69
2024/03/15 22:22:41;;;;;;;;;10.00;10.00;;;;;;;;5032598;28;11460;-70
2024/03/15 22:25:07;;;;;;;;;9.25;9.00;;;;;;;;5032486;28;8817;-70
2024/03/15 22:27:32;;;;;;;;;9.25;8.75;;;;;;;;5032694;28;8804;-71
2024/03/15 22:29:57;;;;;;;;;10.50;10.00;;;;;;;;5030907;28;8815;-70
2024/03/15 22:32:23;;;;;;;;;12.75;10.75;;;;;;;;5032877;28;8926;-71
2024/03/15 22:34:48;;;;;;;;;7.75;7.00;;;;;;;;5032923;28;8819;-72
2024/03/15 22:37:14;;;;;;;;;9.00;9.00;;;;;;;;5032876;28;8784;-71
2024/03/15 22:39:39;;;;;;;;;7.00;7.00;;;;;;;;5032715;28;8800;-71
2024/03/15 22:42:05;;;;;;;;;8.50;6.00;;;;;;;;5031340;28;11619;-71
2024/03/15 22:44:30;;;;;;;;;6.75;6.75;;;;;;;;5031445;28;8800;-71
2024/03/15 22:46:55;;;;;;;;;9.00;7.00;;;;;;;;5033062;28;8799;-71
2024/03/15 22:49:21;;;;;;;;;12.00;10.25;;;;;;;;5032774;28;8816;-71
2024/03/15 22:51:46;;;;;;;;;9.50;9.50;;;;;;;;5032583;28;8768;-71
2024/03/15 22:54:11;;;;;;;;;10.25;10.00;;;;;;;;5031271;28;8926;-71
2024/03/15 22:56:36;;;;;;;;;12.50;9.75;;;;;;;;5032460;28;8804;-71
2024/03/15 22:59:02;;;;;;;;;6.00;6.00;;;;;;;;5032459;28;8816;-71
2024/03/15 23:01:29;;;;;;;;;7.50;6.00;;;;;;;;5032684;28;8796;-71
2024/03/15 23:03:55;;;;;;;;;5.75;5.00;;;;;;;;5032556;28;8796;-71
2024/03/15 23:06:21;;;;;;;;;10.75;7.75;;;;;;;;5032350;28;11462;-71
2024/03/15 23:08:47;;;;;;;;;8.00;8.00;;;;;;;;5032261;28;11484;-70
2024/03/15 23:11:12;;;;;;;;;9.25;8.25;;;;;;;;5032433;28;12245;-71
2024/03/15 23:13:38;;;;;;;;;8.25;6.00;;;;;;;;5032216;28;8818;-71
